Lincoln, Alabama
Current Conditions -  °F | °C
As of 7:35 PM on Tuesday 21 Oct 2014 (Local Time) from KASN Reporting Station
Clear Clear  
Wind Chill: 17°   Ceiling: Unl
Heat Index: 17°   Visibility: 10mi
Dew Point: 10°   Wind: 0mph
Humidity: 66%   Direction: NA
Pressure: 30.02"   Gusts: NA
Location:  33.61°N, 86.12°W
Report Text: KASN 220035Z AUTO 00000KT 10SM CLR 17/10 A3002 RMK AO2 T01660103
Loading
Personal Weather Stations






























Interactive Weather Map
Tropical Storm Tracking
New forecast layout! Learn more

10-Day Weather Forecast

Advertisements
Track Severe Weather on mobile